createdAt,value
2022-08-25T00:00:54.238Z,8.23
2022-08-25T00:02:58.115Z,8.40
2022-08-25T00:05:02.646Z,7.50
2022-08-25T00:07:08.224Z,8.10
2022-08-25T00:09:16.733Z,9.83
2022-08-25T00:11:24.537Z,10.10
2022-08-25T00:13:28.232Z,7.60
2022-08-25T00:15:34.434Z,9.20
2022-08-25T00:17:38.195Z,8.90
2022-08-25T00:19:41.969Z,8.33
2022-08-25T00:21:47.277Z,8.27
2022-08-25T00:23:51.321Z,8.67
2022-08-25T00:25:55.603Z,9.10
2022-08-25T00:27:59.404Z,9.23
2022-08-25T00:30:03.226Z,9.73
2022-08-25T00:32:09.129Z,10.00
2022-08-25T00:34:17.544Z,7.83
2022-08-25T00:36:21.968Z,9.23
2022-08-25T00:38:26.482Z,10.60
2022-08-25T00:40:31.055Z,9.30
2022-08-25T00:42:34.715Z,10.30
2022-08-25T00:44:38.475Z,9.83
2022-08-25T00:46:47.770Z,9.60
2022-08-25T00:48:58.251Z,9.20
2022-08-25T00:51:04.333Z,9.20
2022-08-25T00:53:10.037Z,12.17
2022-08-25T00:55:18.198Z,10.00
2022-08-25T00:57:34.846Z,10.40
2022-08-25T00:59:39.432Z,9.80
2022-08-25T01:01:43.540Z,9.87
2022-08-25T01:03:47.593Z,9.23
2022-08-25T01:05:54.246Z,9.37
2022-08-25T01:07:59.689Z,9.07
2022-08-25T01:10:06.661Z,9.63
2022-08-25T01:12:10.467Z,10.17
2022-08-25T01:14:17.298Z,9.83
2022-08-25T01:16:21.142Z,9.93
2022-08-25T01:18:25.941Z,10.50
2022-08-25T01:20:31.888Z,9.90
2022-08-25T01:22:38.244Z,10.50
2022-08-25T01:24:47.281Z,9.50
2022-08-25T01:26:50.903Z,8.70
2022-08-25T01:29:12.867Z,9.40
2022-08-25T01:31:23.825Z,8.40
2022-08-25T01:33:29.584Z,8.50
2022-08-25T01:35:36.569Z,9.30
2022-08-25T01:37:42.035Z,8.80
2022-08-25T01:39:46.098Z,9.40
2022-08-25T01:42:11.683Z,9.20
2022-08-25T01:44:16.721Z,8.87
2022-08-25T01:46:20.564Z,8.50
2022-08-25T01:48:24.793Z,9.20
2022-08-25T01:50:29.149Z,9.87
2022-08-25T01:52:38.839Z,9.10
2022-08-25T01:54:44.757Z,10.17
2022-08-25T01:56:48.409Z,10.73
2022-08-25T01:58:52.234Z,9.70
2022-08-25T02:00:57.819Z,9.77
2022-08-25T02:03:01.712Z,9.40
2022-08-25T02:05:09.015Z,9.90
2022-08-25T02:07:12.583Z,10.37
2022-08-25T02:09:18.902Z,11.00
2022-08-25T02:11:25.562Z,8.73
2022-08-25T02:13:31.194Z,9.43
2022-08-25T02:15:36.179Z,10.23
2022-08-25T02:17:40.084Z,9.67
2022-08-25T02:19:44.187Z,9.30
2022-08-25T02:21:50.588Z,10.30
2022-08-25T02:23:54.712Z,10.17
2022-08-25T02:25:58.801Z,10.07
2022-08-25T02:28:07.170Z,9.60
2022-08-25T02:30:13.579Z,10.17
2022-08-25T02:32:17.666Z,9.23
2022-08-25T02:34:21.367Z,9.73
2022-08-25T02:36:25.793Z,9.93
2022-08-25T02:38:30.351Z,10.70
2022-08-25T02:40:34.769Z,8.67
2022-08-25T02:42:38.876Z,8.53
2022-08-25T02:44:48.345Z,8.40
2022-08-25T02:46:52.178Z,9.20
2022-08-25T02:48:56.425Z,9.10
2022-08-25T02:51:03.118Z,9.60
2022-08-25T02:53:08.066Z,8.47
2022-08-25T02:55:14.614Z,8.90
2022-08-25T02:57:18.557Z,11.10
2022-08-25T02:59:22.209Z,9.73
2022-08-25T03:01:29.264Z,9.40
2022-08-25T03:03:37.540Z,9.73
2022-08-25T03:05:43.513Z,9.90
2022-08-25T03:07:50.679Z,10.40
2022-08-25T03:09:58.749Z,10.57
2022-08-25T03:12:02.407Z,9.57
2022-08-25T03:14:06.631Z,10.00
2022-08-25T03:16:11.521Z,9.53
2022-08-25T03:18:20.012Z,10.90
2022-08-25T03:20:25.098Z,8.70
2022-08-25T03:22:28.760Z,9.23
2022-08-25T03:24:32.511Z,10.23
2022-08-25T03:26:53.231Z,9.43
2022-08-25T03:29:00.485Z,9.73
2022-08-25T03:31:05.804Z,8.93
2022-08-25T03:33:10.587Z,9.53
2022-08-25T03:35:16.258Z,9.90
2022-08-25T03:37:19.865Z,9.60
2022-08-25T03:39:25.059Z,9.87
2022-08-25T03:41:32.639Z,8.47
2022-08-25T03:43:36.635Z,9.00
2022-08-25T03:45:43.102Z,9.50
2022-08-25T03:47:49.321Z,9.10
2022-08-25T03:49:52.978Z,9.80
2022-08-25T03:51:59.122Z,8.70
2022-08-25T03:54:05.839Z,9.00
2022-08-25T03:56:09.833Z,9.83
2022-08-25T03:58:13.568Z,9.90
2022-08-25T04:00:18.118Z,9.47
2022-08-25T04:02:22.059Z,8.57
2022-08-25T04:04:26.307Z,9.00
2022-08-25T04:06:30.332Z,9.43
2022-08-25T04:08:36.847Z,8.23
2022-08-25T04:10:40.317Z,9.17
2022-08-25T04:12:44.013Z,8.57
2022-08-25T04:14:51.980Z,10.17
2022-08-25T04:16:56.482Z,9.30
2022-08-25T04:19:02.329Z,9.77
2022-08-25T04:21:09.163Z,3.63
2022-08-25T04:23:12.678Z,38.87
2022-08-25T04:25:18.243Z,8.77
2022-08-25T04:27:21.705Z,9.13
2022-08-25T04:29:28.581Z,9.57
2022-08-25T04:31:37.169Z,8.37
2022-08-25T04:33:42.449Z,8.97
2022-08-25T04:35:50.162Z,9.70
2022-08-25T04:37:54.085Z,9.40
2022-08-25T04:39:58.085Z,9.77
2022-08-25T04:42:03.755Z,9.60
2022-08-25T04:44:08.493Z,9.03
2022-08-25T04:46:15.008Z,8.90
2022-08-25T04:48:25.694Z,10.33
2022-08-25T04:50:30.032Z,9.37
2022-08-25T04:52:34.056Z,10.53
2022-08-25T04:54:40.490Z,9.17
2022-08-25T04:56:45.234Z,9.03
2022-08-25T04:58:50.602Z,9.33
2022-08-25T05:00:54.848Z,9.27
2022-08-25T05:02:58.602Z,8.70
2022-08-25T05:05:04.189Z,9.47
2022-08-25T05:07:11.925Z,9.27
2022-08-25T05:09:15.597Z,7.90
2022-08-25T05:11:24.614Z,9.30
2022-08-25T05:13:30.459Z,8.50
2022-08-25T05:15:54.373Z,8.77
2022-08-25T05:18:01.352Z,9.07
2022-08-25T05:20:06.286Z,7.87
2022-08-25T05:22:10.387Z,8.10
2022-08-25T05:24:14.396Z,8.27
2022-08-25T05:26:21.161Z,8.50
2022-08-25T05:28:28.671Z,8.43
2022-08-25T05:30:33.067Z,8.57
2022-08-25T05:32:40.341Z,7.90
2022-08-25T05:34:44.039Z,8.10
2022-08-25T05:36:47.991Z,7.10
2022-08-25T05:38:51.631Z,8.13
2022-08-25T05:40:59.024Z,7.73
2022-08-25T05:43:02.673Z,7.30
2022-08-25T05:45:21.293Z,7.83
2022-08-25T05:47:25.018Z,7.20
2022-08-25T05:49:31.701Z,7.13
2022-08-25T05:51:36.682Z,7.47
2022-08-25T05:53:43.309Z,7.00
2022-08-25T05:55:47.487Z,7.00
2022-08-25T05:57:51.967Z,7.40
2022-08-25T05:59:56.032Z,5.90
2022-08-25T06:02:17.267Z,6.57
2022-08-25T06:04:22.711Z,6.50
2022-08-25T06:06:28.226Z,6.80
2022-08-25T06:08:34.100Z,6.77
2022-08-25T06:10:39.826Z,7.03
2022-08-25T06:12:46.280Z,5.73
2022-08-25T06:14:50.512Z,6.80
2022-08-25T06:16:54.406Z,6.00
2022-08-25T06:18:58.765Z,6.13
2022-08-25T06:21:11.497Z,5.80
2022-08-25T06:23:19.342Z,5.90
2022-08-25T06:25:25.314Z,7.13
2022-08-25T06:27:29.288Z,6.77
2022-08-25T06:29:33.225Z,6.03
2022-08-25T06:31:38.706Z,5.70
2022-08-25T06:33:42.543Z,7.00
2022-08-25T06:35:47.494Z,6.30
2022-08-25T06:37:51.139Z,6.17
2022-08-25T06:39:59.062Z,5.83
2022-08-25T06:42:02.721Z,6.40
2022-08-25T06:44:07.105Z,7.60
2022-08-25T06:46:12.719Z,6.60
2022-08-25T06:48:21.177Z,7.17
2022-08-25T06:50:24.750Z,6.00
2022-08-25T06:52:31.914Z,6.50
2022-08-25T06:54:35.722Z,5.40
2022-08-25T06:56:42.413Z,5.20
2022-08-25T06:58:46.777Z,6.37
2022-08-25T07:00:52.726Z,6.47
2022-08-25T07:02:57.093Z,6.10
2022-08-25T07:05:00.861Z,6.67
2022-08-25T07:07:05.988Z,7.10
2022-08-25T07:09:10.781Z,7.00
2022-08-25T07:11:17.459Z,7.30
2022-08-25T07:13:22.874Z,6.10
2022-08-25T07:15:29.626Z,7.13
2022-08-25T07:17:34.681Z,6.10
2022-08-25T07:19:39.080Z,7.17
2022-08-25T07:21:47.115Z,6.57
2022-08-25T07:23:53.261Z,6.37
2022-08-25T07:25:57.946Z,7.37
2022-08-25T07:28:01.806Z,6.57
2022-08-25T07:30:11.348Z,6.30
2022-08-25T07:32:15.692Z,7.17
2022-08-25T07:34:37.360Z,6.70
2022-08-25T07:36:43.090Z,7.50
2022-08-25T07:38:47.098Z,6.30
2022-08-25T07:40:56.975Z,7.63
2022-08-25T07:43:03.730Z,7.93
2022-08-25T07:45:15.501Z,8.03
2022-08-25T07:47:21.461Z,8.33
2022-08-25T07:49:35.897Z,9.30
2022-08-25T07:51:39.864Z,9.63
2022-08-25T07:54:03.829Z,8.60
2022-08-25T07:56:12.398Z,9.37
2022-08-25T07:58:17.426Z,9.33
2022-08-25T08:00:23.156Z,9.83
2022-08-25T08:02:30.659Z,9.47
2022-08-25T08:04:38.529Z,8.60
2022-08-25T08:06:45.041Z,9.20
2022-08-25T08:08:54.722Z,9.93
2022-08-25T08:11:05.097Z,11.63
2022-08-25T08:13:10.321Z,11.00
2022-08-25T08:15:14.754Z,12.97
2022-08-25T08:17:22.831Z,11.50
2022-08-25T08:19:27.124Z,11.37
2022-08-25T08:21:32.727Z,11.70
2022-08-25T08:23:36.864Z,12.00
2022-08-25T08:25:40.948Z,10.97
2022-08-25T08:27:45.982Z,10.47
2022-08-25T08:29:49.703Z,11.57
2022-08-25T08:31:53.787Z,12.03
2022-08-25T08:33:59.459Z,10.00
2022-08-25T08:36:05.437Z,11.20
2022-08-25T08:38:17.242Z,10.50
2022-08-25T08:40:23.395Z,12.33
2022-08-25T08:42:47.048Z,12.27
2022-08-25T08:45:03.553Z,11.17
2022-08-25T08:47:10.520Z,13.00
2022-08-25T08:49:26.853Z,10.90
2022-08-25T08:51:37.001Z,11.20
2022-08-25T08:53:47.927Z,11.80
2022-08-25T08:55:53.869Z,11.33
2022-08-25T08:57:59.282Z,12.47
2022-08-25T09:00:07.320Z,12.93
2022-08-25T09:02:49.852Z,13.03
2022-08-25T09:04:48.689Z,12.33
2022-08-25T09:06:52.823Z,13.43
2022-08-25T09:09:00.509Z,13.43
2022-08-25T09:11:11.894Z,12.97
2022-08-25T09:13:26.104Z,13.13
2022-08-25T09:15:57.699Z,12.27
2022-08-25T09:18:12.005Z,13.93
2022-08-25T09:20:41.501Z,13.60
2022-08-25T09:22:56.075Z,11.80
2022-08-25T09:25:10.563Z,12.70
2022-08-25T09:27:26.077Z,11.73
2022-08-25T09:29:39.364Z,14.43
2022-08-25T09:31:44.596Z,13.73
2022-08-25T09:33:48.669Z,11.80
2022-08-25T09:36:00.025Z,12.33
2022-08-25T09:38:11.598Z,11.83
2022-08-25T09:40:17.124Z,10.70
2022-08-25T09:42:23.887Z,12.33
2022-08-25T09:44:34.273Z,11.50
2022-08-25T09:46:39.716Z,12.27
2022-08-25T09:48:56.098Z,13.20
2022-08-25T09:51:12.219Z,11.60
2022-08-25T09:53:21.817Z,11.50
2022-08-25T09:55:32.677Z,10.87
2022-08-25T09:57:38.792Z,15.17
2022-08-25T09:59:55.707Z,10.70
2022-08-25T10:02:02.869Z,11.73
2022-08-25T10:04:17.733Z,10.63
2022-08-25T10:06:28.283Z,10.87
2022-08-25T10:08:40.986Z,12.10
2022-08-25T10:10:49.393Z,10.50
2022-08-25T10:12:53.400Z,9.60
2022-08-25T10:14:59.093Z,10.67
2022-08-25T10:17:27.403Z,10.63
2022-08-25T10:19:32.200Z,11.10
2022-08-25T10:21:42.564Z,10.87
2022-08-25T10:23:49.942Z,11.77
2022-08-25T10:25:59.396Z,10.43
2022-08-25T10:28:18.333Z,11.10
2022-08-25T10:30:39.894Z,10.40
2022-08-25T10:33:01.809Z,10.47
2022-08-25T10:35:24.684Z,11.23
2022-08-25T10:37:43.046Z,11.30
2022-08-25T10:39:55.473Z,11.67
2022-08-25T10:42:05.953Z,11.30
2022-08-25T10:44:29.465Z,11.17
2022-08-25T10:46:41.498Z,12.23
2022-08-25T10:48:59.344Z,10.80
2022-08-25T10:51:14.591Z,10.13
2022-08-25T10:53:42.454Z,10.33
2022-08-25T10:55:51.161Z,11.07
2022-08-25T10:58:01.687Z,10.93
2022-08-25T11:00:10.097Z,11.67
2022-08-25T11:03:03.640Z,12.03
2022-08-25T11:05:13.936Z,11.33
2022-08-25T11:07:26.496Z,11.33
2022-08-25T11:09:37.133Z,12.30
2022-08-25T11:11:54.006Z,10.97
2022-08-25T11:14:09.198Z,10.50
2022-08-25T11:16:18.667Z,10.90
2022-08-25T11:18:24.408Z,12.40
2022-08-25T11:20:39.716Z,12.70
2022-08-25T11:22:48.636Z,11.00
2022-08-25T11:25:13.815Z,11.40
2022-08-25T11:27:25.012Z,10.90
2022-08-25T11:29:37.495Z,9.67
2022-08-25T11:31:53.089Z,11.17
2022-08-25T11:34:01.570Z,10.67
2022-08-25T11:36:10.891Z,10.07
2022-08-25T11:38:31.240Z,9.30
2022-08-25T11:41:01.797Z,10.03
2022-08-25T11:43:18.060Z,8.90
2022-08-25T11:45:31.390Z,8.13
2022-08-25T11:47:58.215Z,7.60
2022-08-25T11:50:03.842Z,7.70
2022-08-25T11:52:31.731Z,6.70
2022-08-25T11:54:42.114Z,7.30
2022-08-25T11:57:08.306Z,6.97
2022-08-25T11:59:13.198Z,6.40
2022-08-25T12:02:07.248Z,6.10
2022-08-25T12:04:19.020Z,6.90
2022-08-25T12:06:33.832Z,6.70
2022-08-25T12:09:21.560Z,6.70
2022-08-25T12:11:59.036Z,6.60
2022-08-25T12:14:17.853Z,6.97
2022-08-25T12:16:40.940Z,7.00
2022-08-25T12:18:50.284Z,6.10
2022-08-25T12:21:18.123Z,5.60
2022-08-25T12:23:30.597Z,6.57
2022-08-25T12:25:44.246Z,6.30
2022-08-25T12:27:53.371Z,7.70
2022-08-25T12:30:05.241Z,7.07
2022-08-25T12:32:20.749Z,6.60
2022-08-25T12:34:34.433Z,6.70
2022-08-25T12:36:41.741Z,6.27
2022-08-25T12:38:50.959Z,7.10
2022-08-25T12:41:01.235Z,7.33
2022-08-25T12:43:08.022Z,7.00
2022-08-25T12:45:33.597Z,7.00
2022-08-25T12:47:41.853Z,7.40
2022-08-25T12:49:48.766Z,7.13
2022-08-25T12:51:57.483Z,5.80
2022-08-25T12:54:22.505Z,7.00
2022-08-25T12:56:35.211Z,7.00
2022-08-25T12:59:00.160Z,7.20
2022-08-25T13:01:35.159Z,6.97
2022-08-25T13:04:03.681Z,7.23
2022-08-25T13:06:33.354Z,7.00
2022-08-25T13:09:12.862Z,6.63
2022-08-25T13:11:24.685Z,7.50
2022-08-25T13:13:40.944Z,6.60
2022-08-25T13:15:54.825Z,7.67
2022-08-25T13:18:18.372Z,7.47
2022-08-25T13:20:30.330Z,7.50
2022-08-25T13:22:37.926Z,6.80
2022-08-25T13:24:44.836Z,7.20
2022-08-25T13:26:52.310Z,8.13
2022-08-25T13:29:09.039Z,8.23
2022-08-25T13:31:19.423Z,7.30
2022-08-25T13:33:26.032Z,7.83
2022-08-25T13:35:33.367Z,7.60
2022-08-25T13:37:38.249Z,8.00
2022-08-25T13:39:58.681Z,8.10
2022-08-25T13:42:05.012Z,7.47
2022-08-25T13:44:13.231Z,7.67
2022-08-25T13:46:22.110Z,8.70
2022-08-25T13:48:37.742Z,7.87
2022-08-25T13:50:43.903Z,8.57
2022-08-25T13:52:58.963Z,9.23
2022-08-25T13:55:04.535Z,8.30
2022-08-25T13:57:14.579Z,8.50
2022-08-25T13:59:26.106Z,7.43
2022-08-25T14:01:48.802Z,7.83
2022-08-25T14:04:01.462Z,7.63
2022-08-25T14:06:23.558Z,7.50
2022-08-25T14:08:34.605Z,7.20
2022-08-25T14:10:43.251Z,8.20
2022-08-25T14:12:49.683Z,7.40
2022-08-25T14:15:04.119Z,7.20
2022-08-25T14:17:22.325Z,8.03
2022-08-25T14:19:36.028Z,7.13
2022-08-25T14:21:42.549Z,8.40
2022-08-25T14:23:46.560Z,9.63
2022-08-25T14:25:52.233Z,8.50
2022-08-25T14:28:07.602Z,8.00
2022-08-25T14:30:13.985Z,7.87
2022-08-25T14:32:19.232Z,8.83
2022-08-25T14:34:26.237Z,7.20
2022-08-25T14:36:35.799Z,8.60
2022-08-25T14:38:44.125Z,8.70
2022-08-25T14:40:51.583Z,7.60
2022-08-25T14:42:58.651Z,8.07
2022-08-25T14:45:02.534Z,7.80
2022-08-25T14:47:10.158Z,7.97
2022-08-25T14:49:24.627Z,7.50
2022-08-25T14:51:32.774Z,7.80
2022-08-25T14:53:38.309Z,8.23
2022-08-25T14:55:42.929Z,9.20
2022-08-25T14:57:47.918Z,7.27
2022-08-25T14:59:54.024Z,7.17
2022-08-25T15:02:01.387Z,8.30
2022-08-25T15:04:08.919Z,7.97
2022-08-25T15:06:15.205Z,7.80
2022-08-25T15:08:35.908Z,7.80
2022-08-25T15:10:43.807Z,7.97
2022-08-25T15:12:53.093Z,8.70
2022-08-25T15:14:59.014Z,7.60
2022-08-25T15:17:04.051Z,7.10
2022-08-25T15:19:09.781Z,8.40
2022-08-25T15:21:15.395Z,7.90
2022-08-25T15:23:19.701Z,9.03
2022-08-25T15:25:24.692Z,7.70
2022-08-25T15:27:31.872Z,7.70
2022-08-25T15:29:36.501Z,6.57
2022-08-25T15:31:42.853Z,6.43
2022-08-25T15:33:46.953Z,7.03
2022-08-25T15:35:52.533Z,7.07
2022-08-25T15:38:45.665Z,8.50
2022-08-25T15:40:50.482Z,8.17
2022-08-25T15:42:56.283Z,8.37
2022-08-25T15:45:02.749Z,7.67
2022-08-25T15:47:12.534Z,6.43
2022-08-25T15:49:20.894Z,8.90
2022-08-25T15:51:30.070Z,7.67
2022-08-25T15:53:33.565Z,8.10
2022-08-25T15:55:42.630Z,7.70
2022-08-25T15:57:49.778Z,7.47
2022-08-25T15:59:55.528Z,7.77
2022-08-25T16:02:02.268Z,9.27
2022-08-25T16:04:08.294Z,8.10
2022-08-25T16:06:12.751Z,8.53
2022-08-25T16:08:19.584Z,8.83
2022-08-25T16:10:23.654Z,8.07
2022-08-25T16:12:38.293Z,8.13
2022-08-25T16:14:42.495Z,8.30
2022-08-25T16:16:48.149Z,8.10
2022-08-25T16:18:52.185Z,7.60
2022-08-25T16:20:58.282Z,7.40
2022-08-25T16:23:03.865Z,7.90
2022-08-25T16:25:09.467Z,7.93
2022-08-25T16:27:13.650Z,7.87
2022-08-25T16:29:17.848Z,8.20
2022-08-25T16:31:22.375Z,7.83
2022-08-25T16:33:29.631Z,8.93
2022-08-25T16:35:37.220Z,7.47
2022-08-25T16:37:44.714Z,7.70
2022-08-25T16:39:53.392Z,7.00
2022-08-25T16:41:58.076Z,8.00
2022-08-25T16:45:11.700Z,7.97
2022-08-25T16:46:55.473Z,8.10
2022-08-25T16:49:04.525Z,7.53
2022-08-25T16:51:13.801Z,7.37
2022-08-25T16:54:22.201Z,7.67
2022-08-25T16:56:25.223Z,10.27
2022-08-25T16:58:35.011Z,8.53
2022-08-25T17:00:41.754Z,8.60
2022-08-25T17:02:51.795Z,9.37
2022-08-25T17:05:01.821Z,8.60
2022-08-25T17:07:09.621Z,8.50
2022-08-25T17:09:17.407Z,8.60
2022-08-25T17:11:30.258Z,8.27
2022-08-25T17:13:44.737Z,9.67
2022-08-25T17:15:52.368Z,9.53
2022-08-25T17:18:05.777Z,9.00
2022-08-25T17:20:12.792Z,9.20
2022-08-25T17:22:19.206Z,9.10
2022-08-25T17:24:29.299Z,8.87
2022-08-25T17:26:39.295Z,9.87
2022-08-25T17:28:43.473Z,10.03
2022-08-25T17:30:47.132Z,9.77
2022-08-25T17:32:54.856Z,10.03
2022-08-25T17:34:59.519Z,9.33
2022-08-25T17:37:14.681Z,10.50
2022-08-25T17:39:22.060Z,9.30
2022-08-25T17:41:26.427Z,9.87
2022-08-25T17:43:35.549Z,10.30
2022-08-25T17:45:44.657Z,10.23
2022-08-25T17:47:48.515Z,9.40
2022-08-25T17:49:54.710Z,10.77
2022-08-25T17:52:01.257Z,8.83
2022-08-25T17:54:16.557Z,11.77
2022-08-25T17:56:22.368Z,11.03
2022-08-25T17:58:27.325Z,10.33
2022-08-25T18:00:34.714Z,10.70
2022-08-25T18:02:43.168Z,10.80
2022-08-25T18:04:46.989Z,11.10
2022-08-25T18:06:53.309Z,11.43
2022-08-25T18:09:01.649Z,9.97
2022-08-25T18:11:12.254Z,11.63
2022-08-25T18:13:16.147Z,10.70
2022-08-25T18:15:26.057Z,11.93
2022-08-25T18:17:32.935Z,11.40
2022-08-25T18:19:43.642Z,11.77
2022-08-25T18:21:48.607Z,11.50
2022-08-25T18:23:52.684Z,11.63
2022-08-25T18:26:00.899Z,12.07
2022-08-25T18:28:07.239Z,11.67
2022-08-25T18:30:14.526Z,11.87
2022-08-25T18:32:21.863Z,12.80
2022-08-25T18:34:34.541Z,12.03
2022-08-25T18:36:42.242Z,11.63
2022-08-25T18:39:05.581Z,12.30
2022-08-25T18:41:13.432Z,13.00
2022-08-25T18:43:24.909Z,12.50
2022-08-25T18:45:35.574Z,11.67
2022-08-25T18:47:42.115Z,11.40
2022-08-25T18:49:51.770Z,11.87
2022-08-25T18:51:56.514Z,14.50
2022-08-25T18:54:03.720Z,12.50
2022-08-25T18:56:10.996Z,12.60
2022-08-25T18:58:16.184Z,11.80
2022-08-25T19:00:30.142Z,11.83
2022-08-25T19:02:36.371Z,12.40
2022-08-25T19:04:44.402Z,12.37
2022-08-25T19:06:48.431Z,12.40
2022-08-25T19:08:57.178Z,12.37
2022-08-25T19:11:04.237Z,13.53
2022-08-25T19:13:14.762Z,13.07
2022-08-25T19:15:36.674Z,12.17
2022-08-25T19:17:49.021Z,11.97
2022-08-25T19:19:53.882Z,11.83
2022-08-25T19:22:06.682Z,12.20
2022-08-25T19:24:15.379Z,13.37
2022-08-25T19:26:22.845Z,11.53
2022-08-25T19:28:29.717Z,12.70
2022-08-25T19:30:50.622Z,11.93
2022-08-25T19:32:59.952Z,11.80
2022-08-25T19:35:08.631Z,11.70
2022-08-25T19:37:19.696Z,12.40
2022-08-25T19:39:27.403Z,11.90
2022-08-25T19:41:34.563Z,11.97
2022-08-25T19:43:50.573Z,12.23
2022-08-25T19:46:03.382Z,13.20
2022-08-25T19:48:14.303Z,12.80
2022-08-25T19:50:23.363Z,11.57
2022-08-25T19:52:29.927Z,12.37
2022-08-25T19:54:48.509Z,12.07
2022-08-25T19:56:54.825Z,11.50
2022-08-25T19:59:00.153Z,12.90
2022-08-25T20:01:18.273Z,11.47
2022-08-25T20:03:24.932Z,13.43
2022-08-25T20:05:32.951Z,11.43
2022-08-25T20:07:38.701Z,12.07
2022-08-25T20:09:46.675Z,13.70
2022-08-25T20:11:52.073Z,12.30
2022-08-25T20:14:00.361Z,12.23
2022-08-25T20:16:09.117Z,13.70
2022-08-25T20:18:15.261Z,12.17
2022-08-25T20:20:22.813Z,12.70
2022-08-25T20:22:29.112Z,12.83
2022-08-25T20:24:56.100Z,12.97
2022-08-25T20:27:03.722Z,12.87
2022-08-25T20:29:07.192Z,12.73
2022-08-25T20:31:13.726Z,12.90
2022-08-25T20:33:23.130Z,12.37
2022-08-25T20:35:30.064Z,11.70
2022-08-25T20:37:34.146Z,12.73
2022-08-25T20:39:41.491Z,12.37
2022-08-25T20:41:48.444Z,12.07
2022-08-25T20:43:52.776Z,13.63
2022-08-25T20:46:04.607Z,11.47
2022-08-25T20:48:09.829Z,13.63
2022-08-25T20:50:15.993Z,12.87
2022-08-25T20:52:21.378Z,13.17
2022-08-25T20:54:26.925Z,12.77
2022-08-25T20:56:32.384Z,12.70
2022-08-25T20:58:37.523Z,11.60
2022-08-25T21:00:44.931Z,12.80
2022-08-25T21:02:50.681Z,13.67
2022-08-25T21:04:57.197Z,13.03
2022-08-25T21:07:07.000Z,11.10
2022-08-25T21:09:14.458Z,13.77
2022-08-25T21:11:22.209Z,13.03
2022-08-25T21:13:27.161Z,12.53
2022-08-25T21:15:48.656Z,11.47
2022-08-25T21:17:54.546Z,14.97
2022-08-25T21:19:58.898Z,12.50
2022-08-25T21:22:03.450Z,12.27
2022-08-25T21:24:14.295Z,12.03
2022-08-25T21:26:20.346Z,13.50
2022-08-25T21:28:24.288Z,13.10
2022-08-25T21:30:28.840Z,12.50
2022-08-25T21:32:33.051Z,12.10
2022-08-25T21:34:37.381Z,13.00
2022-08-25T21:36:43.757Z,13.10
2022-08-25T21:38:49.225Z,12.67
2022-08-25T21:40:55.263Z,13.10
2022-08-25T21:42:59.174Z,14.07
2022-08-25T21:45:04.149Z,13.80
2022-08-25T21:47:14.915Z,13.00
2022-08-25T21:49:26.468Z,13.97
2022-08-25T21:51:34.582Z,13.50
2022-08-25T21:53:43.719Z,14.30
2022-08-25T21:55:49.108Z,13.50
2022-08-25T21:57:54.930Z,14.50
2022-08-25T22:00:05.202Z,13.20
2022-08-25T22:02:13.905Z,14.00
2022-08-25T22:04:17.857Z,13.00
2022-08-25T22:06:23.624Z,15.40
2022-08-25T22:08:30.466Z,15.17
2022-08-25T22:10:34.875Z,15.60
2022-08-25T22:12:40.731Z,15.13
2022-08-25T22:14:46.064Z,15.00
2022-08-25T22:16:50.125Z,13.70
2022-08-25T22:18:54.246Z,13.43
2022-08-25T22:20:59.310Z,15.00
2022-08-25T22:23:10.271Z,16.40
2022-08-25T22:25:25.090Z,14.33
2022-08-25T22:27:30.405Z,15.23
2022-08-25T22:29:34.127Z,15.20
2022-08-25T22:31:41.819Z,15.50
2022-08-25T22:33:45.657Z,14.20
2022-08-25T22:35:54.272Z,13.87
2022-08-25T22:38:03.790Z,14.37
2022-08-25T22:40:10.700Z,14.67
2022-08-25T22:42:15.329Z,13.57
2022-08-25T22:44:19.424Z,15.50
2022-08-25T22:46:24.588Z,14.77
2022-08-25T22:48:29.972Z,14.57
2022-08-25T22:50:36.458Z,15.27
2022-08-25T22:52:42.249Z,14.00
2022-08-25T22:54:48.694Z,14.00
2022-08-25T22:56:53.117Z,14.43
2022-08-25T22:58:58.670Z,15.20
2022-08-25T23:01:02.756Z,15.80
2022-08-25T23:03:07.716Z,13.53
2022-08-25T23:05:15.660Z,14.87
2022-08-25T23:07:20.018Z,14.07
2022-08-25T23:09:23.734Z,14.40
2022-08-25T23:11:29.160Z,15.17
2022-08-25T23:13:34.343Z,14.00
2022-08-25T23:15:38.868Z,14.80
2022-08-25T23:17:43.333Z,15.60
2022-08-25T23:19:47.157Z,15.00
2022-08-25T23:22:10.420Z,14.53
2022-08-25T23:24:26.853Z,14.10
2022-08-25T23:26:33.842Z,13.97
2022-08-25T23:28:37.745Z,14.23
2022-08-25T23:30:45.057Z,14.83
2022-08-25T23:33:12.239Z,15.37
2022-08-25T23:35:16.039Z,13.97
2022-08-25T23:37:24.487Z,14.57
2022-08-25T23:39:28.997Z,14.03
2022-08-25T23:41:43.903Z,13.83
2022-08-25T23:43:51.637Z,14.73
2022-08-25T23:45:55.690Z,14.67
2022-08-25T23:48:00.436Z,14.33
2022-08-25T23:50:04.174Z,14.80
2022-08-25T23:52:08.082Z,14.20
2022-08-25T23:54:16.722Z,15.80
2022-08-25T23:56:20.770Z,15.10
2022-08-25T23:58:26.218Z,16.83
